< < Back
Terminal Aerodrome Forecast


Current Version              Previous Versions:   1  2  3  4  5  6  7  8  9  

Terminal Aerodrome Forecast

520
FTUS42 KFFC 012341
TAFPDK
TAF
KPDK 012341Z 0200/0224 00000KT P6SM SCT250
     FM021500 35003KT P6SM SCT035 SCT250
     FM021800 32004KT P6SM BKN045=

Latest METAR

756
SAUS70 KWBC 021456
MTRPDK
METAR KPDK 021453Z 22004KT 10SM CLR 28/22 A3014 RMK AO2 SLP188 T02830222
55001


USA.gov is the U.S. government's official web portal to all federal, state and local government web resources and services.